sensor_id;sensor_type;location;lat;lon;timestamp;temperature;humidity
7920;DHT22;18778;47.610;9.776;2023-05-07T00:02:20;12.50;99.90
7920;DHT22;18778;47.610;9.776;2023-05-07T00:04:46;12.50;99.90
7920;DHT22;18778;47.610;9.776;2023-05-07T00:07:12;12.50;99.90
7920;DHT22;18778;47.610;9.776;2023-05-07T00:09:37;12.50;99.90
7920;DHT22;18778;47.610;9.776;2023-05-07T00:12:03;12.50;99.90
7920;DHT22;18778;47.610;9.776;2023-05-07T00:14:28;12.40;99.90
7920;DHT22;18778;47.610;9.776;2023-05-07T00:16:54;12.50;99.90
7920;DHT22;18778;47.610;9.776;2023-05-07T00:19:20;12.40;99.90
7920;DHT22;18778;47.610;9.776;2023-05-07T00:24:12;12.50;99.90
7920;DHT22;18778;47.610;9.776;2023-05-07T00:26:37;12.40;99.90
7920;DHT22;18778;47.610;9.776;2023-05-07T00:29:03;12.40;99.90
7920;DHT22;18778;47.610;9.776;2023-05-07T00:33:54;12.40;99.90
7920;DHT22;18778;47.610;9.776;2023-05-07T00:36:20;12.30;99.90
7920;DHT22;18778;47.610;9.776;2023-05-07T00:38:45;12.40;99.90
7920;DHT22;18778;47.610;9.776;2023-05-07T00:41:11;12.30;99.90
7920;DHT22;18778;47.610;9.776;2023-05-07T00:43:36;12.40;99.90
7920;DHT22;18778;47.610;9.776;2023-05-07T00:46:03;12.40;99.90
7920;DHT22;18778;47.610;9.776;2023-05-07T00:48:28;12.40;99.90
7920;DHT22;18778;47.610;9.776;2023-05-07T00:50:54;12.50;99.90
7920;DHT22;18778;47.610;9.776;2023-05-07T00:53:20;12.40;99.90
7920;DHT22;18778;47.610;9.776;2023-05-07T00:55:46;12.40;99.90
7920;DHT22;18778;47.610;9.776;2023-05-07T01:00:38;12.20;99.90
7920;DHT22;18778;47.610;9.776;2023-05-07T01:03:03;12.20;99.90
7920;DHT22;18778;47.610;9.776;2023-05-07T01:05:30;12.10;99.90
7920;DHT22;18778;47.610;9.776;2023-05-07T01:07:56;12.20;99.90
7920;DHT22;18778;47.610;9.776;2023-05-07T01:10:24;12.20;99.90
7920;DHT22;18778;47.610;9.776;2023-05-07T01:12:50;12.20;99.90
7920;DHT22;18778;47.610;9.776;2023-05-07T01:15:16;12.10;99.90
7920;DHT22;18778;47.610;9.776;2023-05-07T01:17:42;12.10;99.90
7920;DHT22;18778;47.610;9.776;2023-05-07T01:20:09;12.10;99.90
7920;DHT22;18778;47.610;9.776;2023-05-07T01:22:39;12.10;99.90
7920;DHT22;18778;47.610;9.776;2023-05-07T01:25:06;12.10;99.90
7920;DHT22;18778;47.610;9.776;2023-05-07T01:27:32;12.10;99.90
7920;DHT22;18778;47.610;9.776;2023-05-07T01:30:05;12.20;99.90
7920;DHT22;18778;47.610;9.776;2023-05-07T01:32:48;12.20;99.90
7920;DHT22;18778;47.610;9.776;2023-05-07T01:35:20;12.10;99.90
7920;DHT22;18778;47.610;9.776;2023-05-07T01:37:48;12.10;99.90
7920;DHT22;18778;47.610;9.776;2023-05-07T01:40:14;12.10;99.90
7920;DHT22;18778;47.610;9.776;2023-05-07T01:42:42;12.10;99.90
7920;DHT22;18778;47.610;9.776;2023-05-07T01:45:08;12.20;99.90
7920;DHT22;18778;47.610;9.776;2023-05-07T01:47:35;12.10;99.90
7920;DHT22;18778;47.610;9.776;2023-05-07T01:50:01;13.40;99.90
7920;DHT22;18778;47.610;9.776;2023-05-07T01:52:27;12.00;99.90
7920;DHT22;18778;47.610;9.776;2023-05-07T01:54:53;12.00;99.90
7920;DHT22;18778;47.610;9.776;2023-05-07T01:57:19;12.00;99.90
7920;DHT22;18778;47.610;9.776;2023-05-07T01:59:45;12.10;99.90
7920;DHT22;18778;47.610;9.776;2023-05-07T02:04:36;12.00;99.90
7920;DHT22;18778;47.610;9.776;2023-05-07T02:07:02;12.00;99.90
7920;DHT22;18778;47.610;9.776;2023-05-07T02:09:28;11.20;99.90
7920;DHT22;18778;47.610;9.776;2023-05-07T02:11:53;11.70;99.90
7920;DHT22;18778;47.610;9.776;2023-05-07T02:14:19;11.70;99.90
7920;DHT22;18778;47.610;9.776;2023-05-07T02:19:11;11.70;99.90
7920;DHT22;18778;47.610;9.776;2023-05-07T02:21:37;11.70;99.90
7920;DHT22;18778;47.610;9.776;2023-05-07T02:24:02;11.70;99.90
7920;DHT22;18778;47.610;9.776;2023-05-07T02:28:54;11.60;99.90
7920;DHT22;18778;47.610;9.776;2023-05-07T02:36:12;11.50;99.90
7920;DHT22;18778;47.610;9.776;2023-05-07T02:38:38;11.40;99.90
7920;DHT22;18778;47.610;9.776;2023-05-07T02:41:04;11.40;99.90
7920;DHT22;18778;47.610;9.776;2023-05-07T02:43:30;11.30;99.90
7920;DHT22;18778;47.610;9.776;2023-05-07T02:46:05;12.40;99.90
7920;DHT22;18778;47.610;9.776;2023-05-07T02:48:31;11.20;99.90
7920;DHT22;18778;47.610;9.776;2023-05-07T02:53:23;11.10;99.90
7920;DHT22;18778;47.610;9.776;2023-05-07T02:55:52;11.10;99.90
7920;DHT22;18778;47.610;9.776;2023-05-07T02:58:18;12.40;99.90
7920;DHT22;18778;47.610;9.776;2023-05-07T03:00:43;10.90;99.90
7920;DHT22;18778;47.610;9.776;2023-05-07T03:03:09;10.90;99.90
7920;DHT22;18778;47.610;9.776;2023-05-07T03:05:34;10.90;99.90
7920;DHT22;18778;47.610;9.776;2023-05-07T03:08:00;14.00;99.90
7920;DHT22;18778;47.610;9.776;2023-05-07T03:10:25;10.90;99.90
7920;DHT22;18778;47.610;9.776;2023-05-07T03:12:51;11.10;99.90
7920;DHT22;18778;47.610;9.776;2023-05-07T03:15:16;11.10;99.90
7920;DHT22;18778;47.610;9.776;2023-05-07T03:20:08;11.00;99.90
7920;DHT22;18778;47.610;9.776;2023-05-07T03:22:34;11.00;99.90
7920;DHT22;18778;47.610;9.776;2023-05-07T03:25:00;10.90;99.90
7920;DHT22;18778;47.610;9.776;2023-05-07T03:27:26;10.90;99.90
7920;DHT22;18778;47.610;9.776;2023-05-07T03:29:51;10.80;99.90
7920;DHT22;18778;47.610;9.776;2023-05-07T03:32:17;10.80;99.90
7920;DHT22;18778;47.610;9.776;2023-05-07T03:34:42;10.70;99.90
7920;DHT22;18778;47.610;9.776;2023-05-07T03:39:34;10.70;99.90
7920;DHT22;18778;47.610;9.776;2023-05-07T03:41:59;10.60;99.90
7920;DHT22;18778;47.610;9.776;2023-05-07T03:44:26;10.60;99.90
7920;DHT22;18778;47.610;9.776;2023-05-07T03:46:51;10.70;99.90
7920;DHT22;18778;47.610;9.776;2023-05-07T03:51:43;10.60;99.90
7920;DHT22;18778;47.610;9.776;2023-05-07T03:54:08;10.50;99.90
7920;DHT22;18778;47.610;9.776;2023-05-07T03:56:34;10.60;99.90
7920;DHT22;18778;47.610;9.776;2023-05-07T03:59:00;10.70;99.90
7920;DHT22;18778;47.610;9.776;2023-05-07T04:01:26;10.60;99.90
7920;DHT22;18778;47.610;9.776;2023-05-07T04:03:52;10.70;99.90
7920;DHT22;18778;47.610;9.776;2023-05-07T04:06:17;10.60;99.90
7920;DHT22;18778;47.610;9.776;2023-05-07T04:08:43;10.40;99.90
7920;DHT22;18778;47.610;9.776;2023-05-07T04:11:09;10.40;99.90
7920;DHT22;18778;47.610;9.776;2023-05-07T04:13:34;10.20;99.90
7920;DHT22;18778;47.610;9.776;2023-05-07T04:16:02;10.20;99.90
7920;DHT22;18778;47.610;9.776;2023-05-07T04:20:53;10.20;99.90
7920;DHT22;18778;47.610;9.776;2023-05-07T04:23:19;10.20;99.90
7920;DHT22;18778;47.610;9.776;2023-05-07T04:25:45;10.10;99.90
7920;DHT22;18778;47.610;9.776;2023-05-07T04:30:37;10.10;99.90
7920;DHT22;18778;47.610;9.776;2023-05-07T04:33:03;10.10;99.90
7920;DHT22;18778;47.610;9.776;2023-05-07T04:35:29;10.10;99.90
7920;DHT22;18778;47.610;9.776;2023-05-07T04:37:54;10.10;99.90
7920;DHT22;18778;47.610;9.776;2023-05-07T04:40:20;10.00;99.90
7920;DHT22;18778;47.610;9.776;2023-05-07T04:42:45;10.10;99.90
7920;DHT22;18778;47.610;9.776;2023-05-07T04:45:11;10.10;99.90
7920;DHT22;18778;47.610;9.776;2023-05-07T04:47:38;10.20;99.90
7920;DHT22;18778;47.610;9.776;2023-05-07T04:50:04;10.20;99.90
7920;DHT22;18778;47.610;9.776;2023-05-07T04:52:30;10.50;99.90
7920;DHT22;18778;47.610;9.776;2023-05-07T04:57:22;10.60;99.90
7920;DHT22;18778;47.610;9.776;2023-05-07T04:59:47;10.60;99.90
7920;DHT22;18778;47.610;9.776;2023-05-07T05:02:13;10.70;99.90
7920;DHT22;18778;47.610;9.776;2023-05-07T05:04:38;10.90;99.90
7920;DHT22;18778;47.610;9.776;2023-05-07T05:09:30;11.20;99.90
7920;DHT22;18778;47.610;9.776;2023-05-07T05:11:56;11.30;99.90
7920;DHT22;18778;47.610;9.776;2023-05-07T05:14:21;11.50;99.90
7920;DHT22;18778;47.610;9.776;2023-05-07T05:16:47;11.50;99.90
7920;DHT22;18778;47.610;9.776;2023-05-07T05:19:12;11.70;99.90
7920;DHT22;18778;47.610;9.776;2023-05-07T05:21:38;11.90;99.90
7920;DHT22;18778;47.610;9.776;2023-05-07T05:24:04;12.00;99.90
7920;DHT22;18778;47.610;9.776;2023-05-07T05:26:29;12.20;99.90
7920;DHT22;18778;47.610;9.776;2023-05-07T05:28:55;12.30;99.90
7920;DHT22;18778;47.610;9.776;2023-05-07T05:31:20;12.40;99.90
7920;DHT22;18778;47.610;9.776;2023-05-07T05:33:46;12.60;99.90
7920;DHT22;18778;47.610;9.776;2023-05-07T05:36:12;12.70;99.90
7920;DHT22;18778;47.610;9.776;2023-05-07T05:38:39;12.90;99.90
7920;DHT22;18778;47.610;9.776;2023-05-07T05:41:05;12.80;99.90
7920;DHT22;18778;47.610;9.776;2023-05-07T05:43:30;12.90;99.90
7920;DHT22;18778;47.610;9.776;2023-05-07T05:45:56;13.00;99.90
7920;DHT22;18778;47.610;9.776;2023-05-07T05:48:22;13.20;99.90
7920;DHT22;18778;47.610;9.776;2023-05-07T05:50:48;13.30;99.90
7920;DHT22;18778;47.610;9.776;2023-05-07T05:53:13;13.50;99.90
7920;DHT22;18778;47.610;9.776;2023-05-07T05:58:05;13.70;99.90
7920;DHT22;18778;47.610;9.776;2023-05-07T06:00:31;13.80;99.90
7920;DHT22;18778;47.610;9.776;2023-05-07T06:02:57;13.80;99.90
7920;DHT22;18778;47.610;9.776;2023-05-07T06:05:22;13.90;99.90
7920;DHT22;18778;47.610;9.776;2023-05-07T06:07:48;14.00;99.90
7920;DHT22;18778;47.610;9.776;2023-05-07T06:10:13;14.10;99.90
7920;DHT22;18778;47.610;9.776;2023-05-07T06:12:40;14.20;99.90
7920;DHT22;18778;47.610;9.776;2023-05-07T06:15:06;14.30;99.90
7920;DHT22;18778;47.610;9.776;2023-05-07T06:17:31;14.30;99.90
7920;DHT22;18778;47.610;9.776;2023-05-07T06:24:49;14.50;99.90
7920;DHT22;18778;47.610;9.776;2023-05-07T06:29:40;14.60;99.90
7920;DHT22;18778;47.610;9.776;2023-05-07T06:32:09;14.80;99.90
7920;DHT22;18778;47.610;9.776;2023-05-07T06:34:36;14.90;99.90
7920;DHT22;18778;47.610;9.776;2023-05-07T06:37:02;16.90;99.90
7920;DHT22;18778;47.610;9.776;2023-05-07T06:39:27;14.90;99.90
7920;DHT22;18778;47.610;9.776;2023-05-07T06:41:53;15.00;99.90
7920;DHT22;18778;47.610;9.776;2023-05-07T06:44:19;15.10;99.90
7920;DHT22;18778;47.610;9.776;2023-05-07T06:46:44;17.60;99.90
7920;DHT22;18778;47.610;9.776;2023-05-07T06:51:36;15.50;99.90
7920;DHT22;18778;47.610;9.776;2023-05-07T06:54:02;15.40;99.90
7920;DHT22;18778;47.610;9.776;2023-05-07T06:56:29;15.70;99.90
7920;DHT22;18778;47.610;9.776;2023-05-07T06:58:55;15.70;99.90
7920;DHT22;18778;47.610;9.776;2023-05-07T07:01:20;15.90;99.90
7920;DHT22;18778;47.610;9.776;2023-05-07T07:08:38;16.40;99.90
7920;DHT22;18778;47.610;9.776;2023-05-07T07:11:05;16.30;99.90
7920;DHT22;18778;47.610;9.776;2023-05-07T07:13:31;16.50;99.90
7920;DHT22;18778;47.610;9.776;2023-05-07T07:15:56;19.70;99.90
7920;DHT22;18778;47.610;9.776;2023-05-07T07:18:22;17.90;99.90
7920;DHT22;18778;47.610;9.776;2023-05-07T07:20:47;17.20;99.90
7920;DHT22;18778;47.610;9.776;2023-05-07T07:23:13;17.20;99.90
7920;DHT22;18778;47.610;9.776;2023-05-07T07:25:39;18.10;99.90
7920;DHT22;18778;47.610;9.776;2023-05-07T07:28:05;17.20;99.90
7920;DHT22;18778;47.610;9.776;2023-05-07T07:30:31;17.20;99.90
7920;DHT22;18778;47.610;9.776;2023-05-07T07:32:56;17.40;99.90
7920;DHT22;18778;47.610;9.776;2023-05-07T07:35:30;17.40;99.90
7920;DHT22;18778;47.610;9.776;2023-05-07T07:37:56;17.30;99.90
7920;DHT22;18778;47.610;9.776;2023-05-07T07:40:22;17.10;99.90
7920;DHT22;18778;47.610;9.776;2023-05-07T07:42:48;17.10;99.90
7920;DHT22;18778;47.610;9.776;2023-05-07T07:45:13;18.50;99.90
7920;DHT22;18778;47.610;9.776;2023-05-07T07:47:39;18.70;99.90
7920;DHT22;18778;47.610;9.776;2023-05-07T07:50:06;17.40;99.90
7920;DHT22;18778;47.610;9.776;2023-05-07T07:52:32;17.40;99.90
7920;DHT22;18778;47.610;9.776;2023-05-07T07:54:58;17.80;99.90
7920;DHT22;18778;47.610;9.776;2023-05-07T07:57:23;19.10;99.90
7920;DHT22;18778;47.610;9.776;2023-05-07T07:59:49;17.90;99.90
7920;DHT22;18778;47.610;9.776;2023-05-07T08:02:15;18.10;99.90
7920;DHT22;18778;47.610;9.776;2023-05-07T08:04:41;19.30;99.90
7920;DHT22;18778;47.610;9.776;2023-05-07T08:07:09;18.20;99.90
7920;DHT22;18778;47.610;9.776;2023-05-07T08:09:34;19.30;99.90
7920;DHT22;18778;47.610;9.776;2023-05-07T08:12:00;18.20;99.90
7920;DHT22;18778;47.610;9.776;2023-05-07T08:14:26;18.40;99.90
7920;DHT22;18778;47.610;9.776;2023-05-07T08:16:54;18.60;99.90
7920;DHT22;18778;47.610;9.776;2023-05-07T08:19:20;18.70;99.90
7920;DHT22;18778;47.610;9.776;2023-05-07T08:21:45;22.20;99.90
7920;DHT22;18778;47.610;9.776;2023-05-07T08:24:16;18.90;99.90
7920;DHT22;18778;47.610;9.776;2023-05-07T08:26:42;18.80;99.90
7920;DHT22;18778;47.610;9.776;2023-05-07T08:29:08;18.80;99.90
7920;DHT22;18778;47.610;9.776;2023-05-07T08:31:33;20.50;99.90
7920;DHT22;18778;47.610;9.776;2023-05-07T08:33:59;21.20;99.90
7920;DHT22;18778;47.610;9.776;2023-05-07T08:36:25;19.20;99.90
7920;DHT22;18778;47.610;9.776;2023-05-07T08:38:51;19.40;99.90
7920;DHT22;18778;47.610;9.776;2023-05-07T08:41:17;21.30;99.90
7920;DHT22;18778;47.610;9.776;2023-05-07T08:43:49;19.30;99.90
7920;DHT22;18778;47.610;9.776;2023-05-07T08:46:21;19.20;99.90
7920;DHT22;18778;47.610;9.776;2023-05-07T08:48:50;19.20;99.90
7920;DHT22;18778;47.610;9.776;2023-05-07T08:51:18;19.30;99.90
7920;DHT22;18778;47.610;9.776;2023-05-07T08:53:46;19.20;99.90
7920;DHT22;18778;47.610;9.776;2023-05-07T08:56:14;21.10;99.90
7920;DHT22;18778;47.610;9.776;2023-05-07T08:58:41;19.50;99.90
7920;DHT22;18778;47.610;9.776;2023-05-07T09:01:14;19.50;99.90
7920;DHT22;18778;47.610;9.776;2023-05-07T09:03:40;19.70;99.90
7920;DHT22;18778;47.610;9.776;2023-05-07T09:06:06;20.20;99.90
7920;DHT22;18778;47.610;9.776;2023-05-07T09:08:33;19.50;99.90
7920;DHT22;18778;47.610;9.776;2023-05-07T09:10:59;22.60;99.90
7920;DHT22;18778;47.610;9.776;2023-05-07T09:13:25;19.60;99.90
7920;DHT22;18778;47.610;9.776;2023-05-07T09:15:52;22.00;99.90
7920;DHT22;18778;47.610;9.776;2023-05-07T09:18:17;20.80;99.90
7920;DHT22;18778;47.610;9.776;2023-05-07T09:20:43;20.00;99.90
7920;DHT22;18778;47.610;9.776;2023-05-07T09:23:08;20.00;99.90
7920;DHT22;18778;47.610;9.776;2023-05-07T09:25:35;20.20;99.90
7920;DHT22;18778;47.610;9.776;2023-05-07T09:28:02;20.20;99.90
7920;DHT22;18778;47.610;9.776;2023-05-07T09:30:32;20.40;99.90
7920;DHT22;18778;47.610;9.776;2023-05-07T09:33:01;21.40;99.90
7920;DHT22;18778;47.610;9.776;2023-05-07T09:35:27;20.20;99.90
7920;DHT22;18778;47.610;9.776;2023-05-07T09:37:54;20.10;99.90
7920;DHT22;18778;47.610;9.776;2023-05-07T09:40:25;20.00;99.90
7920;DHT22;18778;47.610;9.776;2023-05-07T09:42:51;19.90;99.90
7920;DHT22;18778;47.610;9.776;2023-05-07T09:45:25;22.40;99.90
7920;DHT22;18778;47.610;9.776;2023-05-07T09:47:54;19.70;99.90
7920;DHT22;18778;47.610;9.776;2023-05-07T09:50:46;19.70;99.90
7920;DHT22;18778;47.610;9.776;2023-05-07T09:53:09;19.60;99.90
7920;DHT22;18778;47.610;9.776;2023-05-07T09:55:36;19.80;99.90
7920;DHT22;18778;47.610;9.776;2023-05-07T09:58:04;23.20;99.90
7920;DHT22;18778;47.610;9.776;2023-05-07T10:00:30;20.50;99.90
7920;DHT22;18778;47.610;9.776;2023-05-07T10:02:57;20.40;99.90
7920;DHT22;18778;47.610;9.776;2023-05-07T10:05:24;20.60;99.90
7920;DHT22;18778;47.610;9.776;2023-05-07T10:07:50;21.80;99.90
7920;DHT22;18778;47.610;9.776;2023-05-07T10:10:17;20.50;99.90
7920;DHT22;18778;47.610;9.776;2023-05-07T10:15:10;20.50;99.90
7920;DHT22;18778;47.610;9.776;2023-05-07T10:17:37;20.70;99.90
7920;DHT22;18778;47.610;9.776;2023-05-07T10:20:03;22.10;99.90
7920;DHT22;18778;47.610;9.776;2023-05-07T10:22:34;21.50;99.90
7920;DHT22;18778;47.610;9.776;2023-05-07T10:25:06;22.80;99.90
7920;DHT22;18778;47.610;9.776;2023-05-07T10:32:49;22.20;99.90
7920;DHT22;18778;47.610;9.776;2023-05-07T10:35:20;22.60;99.90
7920;DHT22;18778;47.610;9.776;2023-05-07T10:37:47;22.20;99.90
7920;DHT22;18778;47.610;9.776;2023-05-07T10:40:13;24.00;99.90
7920;DHT22;18778;47.610;9.776;2023-05-07T10:42:53;22.50;99.90
7920;DHT22;18778;47.610;9.776;2023-05-07T10:45:22;22.70;99.90
7920;DHT22;18778;47.610;9.776;2023-05-07T10:48:20;22.90;99.50
7920;DHT22;18778;47.610;9.776;2023-05-07T10:50:46;22.70;98.90
7920;DHT22;18778;47.610;9.776;2023-05-07T10:58:26;25.60;99.90
7920;DHT22;18778;47.610;9.776;2023-05-07T11:00:56;23.10;98.30
7920;DHT22;18778;47.610;9.776;2023-05-07T11:03:22;23.20;97.80
7920;DHT22;18778;47.610;9.776;2023-05-07T11:06:12;23.80;97.30
7920;DHT22;18778;47.610;9.776;2023-05-07T11:08:56;23.70;96.60
7920;DHT22;18778;47.610;9.776;2023-05-07T11:11:49;23.70;97.00
7920;DHT22;18778;47.610;9.776;2023-05-07T11:14:43;23.80;99.20
7920;DHT22;18778;47.610;9.776;2023-05-07T11:17:09;24.30;98.30
7920;DHT22;18778;47.610;9.776;2023-05-07T11:19:53;24.60;96.80
7920;DHT22;18778;47.610;9.776;2023-05-07T11:22:36;24.90;97.50
7920;DHT22;18778;47.610;9.776;2023-05-07T11:25:05;25.10;95.60
7920;DHT22;18778;47.610;9.776;2023-05-07T11:27:32;25.10;94.80
7920;DHT22;18778;47.610;9.776;2023-05-07T11:29:58;25.00;94.70
7920;DHT22;18778;47.610;9.776;2023-05-07T11:32:27;25.50;95.20
7920;DHT22;18778;47.610;9.776;2023-05-07T11:34:54;24.80;94.20
7920;DHT22;18778;47.610;9.776;2023-05-07T11:37:20;24.60;94.30
7920;DHT22;18778;47.610;9.776;2023-05-07T11:39:47;26.50;96.40
7920;DHT22;18778;47.610;9.776;2023-05-07T11:42:31;24.80;95.80
7920;DHT22;18778;47.610;9.776;2023-05-07T11:44:58;25.10;94.60
7920;DHT22;18778;47.610;9.776;2023-05-07T11:47:24;25.10;93.20
7920;DHT22;18778;47.610;9.776;2023-05-07T11:49:52;24.70;94.20
7920;DHT22;18778;47.610;9.776;2023-05-07T11:52:18;24.80;93.80
7920;DHT22;18778;47.610;9.776;2023-05-07T11:57:15;24.90;95.80
7920;DHT22;18778;47.610;9.776;2023-05-07T12:02:09;24.90;93.60
7920;DHT22;18778;47.610;9.776;2023-05-07T12:04:35;25.00;94.60
7920;DHT22;18778;47.610;9.776;2023-05-07T12:09:26;25.30;94.50
7920;DHT22;18778;47.610;9.776;2023-05-07T12:11:52;25.50;94.10
7920;DHT22;18778;47.610;9.776;2023-05-07T12:14:18;25.60;92.90
7920;DHT22;18778;47.610;9.776;2023-05-07T12:16:44;25.80;93.70
7920;DHT22;18778;47.610;9.776;2023-05-07T12:19:11;27.30;91.90
7920;DHT22;18778;47.610;9.776;2023-05-07T12:21:39;26.20;92.80
7920;DHT22;18778;47.610;9.776;2023-05-07T12:24:05;25.70;92.70
7920;DHT22;18778;47.610;9.776;2023-05-07T12:26:31;25.70;92.10
7920;DHT22;18778;47.610;9.776;2023-05-07T12:28:57;25.60;91.20
7920;DHT22;18778;47.610;9.776;2023-05-07T12:31:26;25.70;91.70
7920;DHT22;18778;47.610;9.776;2023-05-07T12:41:10;26.10;93.60
7920;DHT22;18778;47.610;9.776;2023-05-07T12:43:37;26.20;93.90
7920;DHT22;18778;47.610;9.776;2023-05-07T12:46:06;26.10;91.70
7920;DHT22;18778;47.610;9.776;2023-05-07T12:51:00;25.80;92.60
7920;DHT22;18778;47.610;9.776;2023-05-07T12:53:26;25.70;92.10
7920;DHT22;18778;47.610;9.776;2023-05-07T12:55:57;25.50;91.20
7920;DHT22;18778;47.610;9.776;2023-05-07T12:58:32;25.50;91.80
7920;DHT22;18778;47.610;9.776;2023-05-07T13:01:05;25.10;92.80
7920;DHT22;18778;47.610;9.776;2023-05-07T13:03:33;25.40;93.80
7920;DHT22;18778;47.610;9.776;2023-05-07T13:06:05;25.90;94.30
7920;DHT22;18778;47.610;9.776;2023-05-07T13:08:34;26.00;89.80
7920;DHT22;18778;47.610;9.776;2023-05-07T13:11:02;26.00;90.20
7920;DHT22;18778;47.610;9.776;2023-05-07T13:13:30;25.70;91.80
7920;DHT22;18778;47.610;9.776;2023-05-07T13:15:55;25.80;92.10
7920;DHT22;18778;47.610;9.776;2023-05-07T13:18:21;25.90;92.50
7920;DHT22;18778;47.610;9.776;2023-05-07T13:20:47;25.90;91.60
7920;DHT22;18778;47.610;9.776;2023-05-07T13:23:12;25.90;91.20
7920;DHT22;18778;47.610;9.776;2023-05-07T13:25:38;28.60;91.90
7920;DHT22;18778;47.610;9.776;2023-05-07T13:32:56;26.10;88.90
7920;DHT22;18778;47.610;9.776;2023-05-07T13:35:22;26.00;91.80
7920;DHT22;18778;47.610;9.776;2023-05-07T13:37:47;26.00;91.20
7920;DHT22;18778;47.610;9.776;2023-05-07T13:42:40;26.20;93.20
7920;DHT22;18778;47.610;9.776;2023-05-07T13:45:07;26.50;92.10
7920;DHT22;18778;47.610;9.776;2023-05-07T13:47:33;26.50;89.50
7920;DHT22;18778;47.610;9.776;2023-05-07T13:49:58;26.90;86.20
7920;DHT22;18778;47.610;9.776;2023-05-07T13:52:24;26.90;86.30
7920;DHT22;18778;47.610;9.776;2023-05-07T13:54:49;27.00;88.50
7920;DHT22;18778;47.610;9.776;2023-05-07T13:57:17;27.10;90.10
7920;DHT22;18778;47.610;9.776;2023-05-07T14:04:35;27.40;86.90
7920;DHT22;18778;47.610;9.776;2023-05-07T14:07:00;27.60;90.20
7920;DHT22;18778;47.610;9.776;2023-05-07T14:09:26;28.70;86.90
7920;DHT22;18778;47.610;9.776;2023-05-07T14:11:51;29.30;83.90
7920;DHT22;18778;47.610;9.776;2023-05-07T14:14:18;29.60;80.60
7920;DHT22;18778;47.610;9.776;2023-05-07T14:16:44;29.90;79.70
7920;DHT22;18778;47.610;9.776;2023-05-07T14:19:10;30.10;79.00
7920;DHT22;18778;47.610;9.776;2023-05-07T14:24:02;28.20;82.00
7920;DHT22;18778;47.610;9.776;2023-05-07T14:26:28;27.50;85.00
7920;DHT22;18778;47.610;9.776;2023-05-07T14:28:53;26.80;86.90
7920;DHT22;18778;47.610;9.776;2023-05-07T14:31:21;26.00;86.20
7920;DHT22;18778;47.610;9.776;2023-05-07T14:33:49;26.00;86.20
7920;DHT22;18778;47.610;9.776;2023-05-07T14:38:42;24.80;87.80
7920;DHT22;18778;47.610;9.776;2023-05-07T14:41:07;24.80;88.00
7920;DHT22;18778;47.610;9.776;2023-05-07T14:43:33;24.70;90.90
7920;DHT22;18778;47.610;9.776;2023-05-07T14:46:01;24.40;85.80
7920;DHT22;18778;47.610;9.776;2023-05-07T14:53:18;24.20;87.50
7920;DHT22;18778;47.610;9.776;2023-05-07T14:55:44;24.20;89.70
7920;DHT22;18778;47.610;9.776;2023-05-07T14:58:10;24.10;90.40
7920;DHT22;18778;47.610;9.776;2023-05-07T15:00:36;23.80;90.90
7920;DHT22;18778;47.610;9.776;2023-05-07T15:03:06;23.80;90.90
7920;DHT22;18778;47.610;9.776;2023-05-07T15:05:33;23.70;91.80
7920;DHT22;18778;47.610;9.776;2023-05-07T15:10:25;23.60;91.80
7920;DHT22;18778;47.610;9.776;2023-05-07T15:12:50;23.50;92.70
7920;DHT22;18778;47.610;9.776;2023-05-07T15:15:16;23.50;94.90
7920;DHT22;18778;47.610;9.776;2023-05-07T15:17:41;23.40;95.00
7920;DHT22;18778;47.610;9.776;2023-05-07T15:20:07;26.60;96.50
7920;DHT22;18778;47.610;9.776;2023-05-07T15:22:33;23.30;94.70
7920;DHT22;18778;47.610;9.776;2023-05-07T15:25:01;26.00;96.30
7920;DHT22;18778;47.610;9.776;2023-05-07T15:27:26;23.00;97.00
7920;DHT22;18778;47.610;9.776;2023-05-07T15:29:52;22.70;97.20
7920;DHT22;18778;47.610;9.776;2023-05-07T15:32:18;22.50;97.10
7920;DHT22;18778;47.610;9.776;2023-05-07T15:34:43;22.10;98.40
7920;DHT22;18778;47.610;9.776;2023-05-07T15:37:09;23.10;99.60
7920;DHT22;18778;47.610;9.776;2023-05-07T15:39:35;21.10;99.90
7920;DHT22;18778;47.610;9.776;2023-05-07T15:42:00;21.00;99.90
7920;DHT22;18778;47.610;9.776;2023-05-07T15:46:58;20.70;99.90
7920;DHT22;18778;47.610;9.776;2023-05-07T15:49:25;20.50;99.90
7920;DHT22;18778;47.610;9.776;2023-05-07T15:51:52;20.60;99.90
7920;DHT22;18778;47.610;9.776;2023-05-07T15:59:15;20.90;97.80
7920;DHT22;18778;47.610;9.776;2023-05-07T16:01:41;21.20;97.30
7920;DHT22;18778;47.610;9.776;2023-05-07T16:06:36;21.70;96.20
7920;DHT22;18778;47.610;9.776;2023-05-07T16:09:02;21.80;96.10
7920;DHT22;18778;47.610;9.776;2023-05-07T16:11:28;21.70;95.20
7920;DHT22;18778;47.610;9.776;2023-05-07T16:13:55;24.00;96.80
7920;DHT22;18778;47.610;9.776;2023-05-07T16:16:20;23.50;96.30
7920;DHT22;18778;47.610;9.776;2023-05-07T16:23:38;21.10;97.20
7920;DHT22;18778;47.610;9.776;2023-05-07T16:26:04;21.00;97.30
7920;DHT22;18778;47.610;9.776;2023-05-07T16:33:21;20.40;98.10
7920;DHT22;18778;47.610;9.776;2023-05-07T16:35:51;20.00;99.10
7920;DHT22;18778;47.610;9.776;2023-05-07T16:38:17;19.70;99.60
7920;DHT22;18778;47.610;9.776;2023-05-07T16:40:42;19.30;99.90
7920;DHT22;18778;47.610;9.776;2023-05-07T16:43:08;19.10;99.90
7920;DHT22;18778;47.610;9.776;2023-05-07T16:45:34;18.90;99.90
7920;DHT22;18778;47.610;9.776;2023-05-07T16:47:59;18.80;99.90
7920;DHT22;18778;47.610;9.776;2023-05-07T16:50:25;18.70;99.90
7920;DHT22;18778;47.610;9.776;2023-05-07T16:52:51;18.60;99.90
7920;DHT22;18778;47.610;9.776;2023-05-07T16:55:16;18.50;99.90
7920;DHT22;18778;47.610;9.776;2023-05-07T17:00:08;18.40;99.90
7920;DHT22;18778;47.610;9.776;2023-05-07T17:02:35;18.20;99.90
7920;DHT22;18778;47.610;9.776;2023-05-07T17:07:27;17.80;99.90
7920;DHT22;18778;47.610;9.776;2023-05-07T17:09:53;18.10;99.90
7920;DHT22;18778;47.610;9.776;2023-05-07T17:12:18;20.20;99.90
7920;DHT22;18778;47.610;9.776;2023-05-07T17:14:44;17.30;99.90
7920;DHT22;18778;47.610;9.776;2023-05-07T17:19:37;17.00;99.90
7920;DHT22;18778;47.610;9.776;2023-05-07T17:22:03;16.80;99.90
7920;DHT22;18778;47.610;9.776;2023-05-07T17:24:28;16.70;99.90
7920;DHT22;18778;47.610;9.776;2023-05-07T17:26:54;16.70;99.90
7920;DHT22;18778;47.610;9.776;2023-05-07T17:36:37;16.40;99.90
7920;DHT22;18778;47.610;9.776;2023-05-07T17:39:03;16.20;99.90
7920;DHT22;18778;47.610;9.776;2023-05-07T17:41:29;16.20;99.90
7920;DHT22;18778;47.610;9.776;2023-05-07T17:43:54;16.10;99.90
7920;DHT22;18778;47.610;9.776;2023-05-07T17:46:20;16.30;99.90
7920;DHT22;18778;47.610;9.776;2023-05-07T17:48:45;16.30;99.90
7920;DHT22;18778;47.610;9.776;2023-05-07T17:51:11;16.20;99.90
7920;DHT22;18778;47.610;9.776;2023-05-07T17:53:37;16.10;99.90
7920;DHT22;18778;47.610;9.776;2023-05-07T17:56:02;16.10;99.90
7920;DHT22;18778;47.610;9.776;2023-05-07T17:58:28;16.00;99.90
7920;DHT22;18778;47.610;9.776;2023-05-07T18:00:53;16.00;99.90
7920;DHT22;18778;47.610;9.776;2023-05-07T18:03:21;15.90;99.90
7920;DHT22;18778;47.610;9.776;2023-05-07T18:05:49;15.90;99.90
7920;DHT22;18778;47.610;9.776;2023-05-07T18:08:15;15.70;99.90